Time;durP1;ratioP1;P1;durP2;ratioP2;P2;SDS_P1;SDS_P2;PMS_P1;PMS_P2;Temp;Humidity;BMP_temperature;BMP_pressure;BME280_temperature;BME280_humidity;BME280_pressure;Samples;Min_cycle;Max_cycle;Signal;HPM_P1;HPM_P2
2022/10/10 00:00:43;;;;;;;4.20;0.90;;;;;;;9.73;59.67;101564.44;4906334;28;97078;-48
2022/10/10 00:03:09;;;;;;;1.33;1.00;;;;;;;9.72;59.52;101560.16;4905302;28;98913;-48
2022/10/10 00:05:36;;;;;;;3.93;1.17;;;;;;;9.71;59.69;101559.41;4909928;28;97055;-49
2022/10/10 00:08:02;;;;;;;2.30;0.60;;;;;;;9.71;59.63;101551.16;4907265;28;97376;-48
2022/10/10 00:10:27;;;;;;;3.20;0.80;;;;;;;9.69;59.68;101544.63;4903857;28;98001;-48
2022/10/10 00:12:53;;;;;;;1.30;0.80;;;;;;;9.66;59.97;101537.28;4909454;28;98582;-48
2022/10/10 00:15:18;;;;;;;1.93;0.93;;;;;;;9.67;59.84;101545.09;4908591;28;96953;-48
2022/10/10 00:17:44;;;;;;;3.97;1.43;;;;;;;9.69;59.75;101537.13;4906445;28;97374;-51
2022/10/10 00:20:11;;;;;;;0.90;0.80;;;;;;;9.68;59.79;101540.31;4907222;28;97484;-48
2022/10/10 00:22:36;;;;;;;1.43;0.70;;;;;;;9.68;59.75;101532.09;4904903;28;96964;-48
2022/10/10 00:25:02;;;;;;;1.87;1.03;;;;;;;9.68;59.80;101535.59;4903936;28;100838;-48
2022/10/10 00:27:28;;;;;;;5.90;1.20;;;;;;;9.68;59.79;101532.09;4908757;28;98159;-48
2022/10/10 00:29:53;;;;;;;5.27;1.40;;;;;;;9.68;59.91;101540.31;4909400;28;108937;-47
2022/10/10 00:32:18;;;;;;;2.40;0.70;;;;;;;9.68;59.90;101538.34;4904141;28;99370;-48
2022/10/10 00:34:44;;;;;;;2.50;1.40;;;;;;;9.69;59.94;101539.13;4906500;28;97036;-48
2022/10/10 00:37:09;;;;;;;7.70;0.83;;;;;;;9.72;60.00;101538.16;4906043;28;97981;-48
2022/10/10 00:39:34;;;;;;;1.20;0.70;;;;;;;9.73;59.92;101536.97;4906129;28;97558;-48
2022/10/10 00:41:59;;;;;;;1.50;1.00;;;;;;;9.73;59.95;101534.22;4907610;28;106568;-48
2022/10/10 00:44:26;;;;;;;1.37;1.10;;;;;;;9.70;59.95;101527.66;4909130;28;104657;-48
2022/10/10 00:46:51;;;;;;;3.90;0.80;;;;;;;9.71;59.82;101517.44;4906774;28;96812;-48
2022/10/10 00:49:21;;;;;;;0.97;0.73;;;;;;;9.72;60.05;101516.19;4906513;28;97446;-48
2022/10/10 00:51:49;;;;;;;2.00;0.63;;;;;;;9.71;59.97;101512.69;4906785;28;97763;-48
2022/10/10 00:54:18;;;;;;;1.83;0.90;;;;;;;9.71;59.91;101511.94;4908662;28;97491;-48
2022/10/10 00:56:49;;;;;;;1.73;1.17;;;;;;;9.70;60.04;101507.66;4907638;28;101697;-48
2022/10/10 00:59:15;;;;;;;0.73;0.73;;;;;;;9.67;59.97;101500.34;4903945;28;100327;-48
2022/10/10 01:01:41;;;;;;;0.97;0.90;;;;;;;9.68;60.00;101504.59;4907260;28;96734;-48
2022/10/10 01:04:31;;;;;;;5.03;0.87;;;;;;;9.65;60.48;101503.56;4906812;28;97060;-48
2022/10/10 01:06:57;;;;;;;2.20;0.70;;;;;;;9.63;59.99;101500.50;4904086;28;100757;-49
2022/10/10 01:09:23;;;;;;;4.63;0.87;;;;;;;9.63;60.10;101497.03;4907406;28;97357;-48
2022/10/10 01:12:00;;;;;;;1.50;0.67;;;;;;;9.63;60.19;101499.78;4906034;28;97108;-48
2022/10/10 01:14:52;;;;;;;3.80;0.67;;;;;;;9.63;60.48;101499.78;4904930;28;97056;-48
2022/10/10 01:17:23;;;;;;;2.20;0.80;;;;;;;9.62;60.09;101493.50;4905246;28;101276;-48
2022/10/10 01:20:28;;;;;;;0.93;0.83;;;;;;;9.61;60.63;101493.97;4906544;28;97327;-48
2022/10/10 01:23:12;;;;;;;0.90;0.90;;;;;;;9.59;60.12;101490.91;4905679;28;96878;-48
2022/10/10 01:26:00;;;;;;;1.40;0.90;;;;;;;9.60;60.37;101503.44;4908578;28;97008;-48
2022/10/10 01:29:04;;;;;;;1.37;1.00;;;;;;;9.58;60.23;101494.91;4903186;28;102018;-48
2022/10/10 01:31:33;;;;;;;2.10;1.00;;;;;;;9.51;60.12;101485.00;4868352;28;102960;-48
2022/10/10 01:34:25;;;;;;;0.93;0.83;;;;;;;9.50;60.54;101477.97;4909016;28;96801;-48
2022/10/10 01:37:15;;;;;;;1.37;0.80;;;;;;;9.48;60.58;101474.94;4906450;28;97364;-48
2022/10/10 01:39:59;;;;;;;0.70;0.70;;;;;;;9.45;60.01;101481.38;4907164;28;100580;-48
2022/10/10 01:42:33;;;;;;;2.40;0.90;;;;;;;9.41;60.30;101480.03;4902249;28;101691;-48
2022/10/10 01:44:58;;;;;;;1.27;0.87;;;;;;;9.40;60.32;101471.00;4907077;28;96667;-48
2022/10/10 01:47:23;;;;;;;0.80;0.63;;;;;;;9.39;60.24;101468.75;4905188;28;96886;-48
2022/10/10 01:49:57;;;;;;;4.30;0.60;;;;;;;9.39;60.27;101460.50;4905516;28;97564;-48
2022/10/10 01:52:29;;;;;;;1.57;0.90;;;;;;;9.38;60.16;101461.72;4903986;28;96811;-48
2022/10/10 01:55:12;;;;;;;2.23;1.00;;;;;;;9.38;60.39;101453.47;4906478;28;97049;-48
2022/10/10 01:57:40;;;;;;;1.43;0.97;;;;;;;9.35;60.18;101455.16;4905419;28;96929;-48
2022/10/10 02:00:09;;;;;;;3.10;0.87;;;;;;;9.33;60.24;101452.13;4904104;28;100592;-48
2022/10/10 02:02:54;;;;;;;0.70;0.70;;;;;;;9.33;60.51;101443.09;4903922;28;97863;-48
2022/10/10 02:05:45;;;;;;;2.40;0.70;;;;;;;9.29;60.63;101446.03;4904808;28;97528;-49
2022/10/10 02:08:13;;;;;;;1.17;0.90;;;;;;;9.29;60.38;101446.03;4907697;28;97399;-48
2022/10/10 02:10:52;;;;;;;2.30;1.17;;;;;;;9.30;60.51;101446.81;4904757;28;97610;-48
2022/10/10 02:13:20;;;;;;;1.07;0.93;;;;;;;9.26;60.29;101444.19;4903065;28;101568;-48
2022/10/10 02:15:52;;;;;;;5.20;1.67;;;;;;;9.25;60.54;101444.69;4906408;28;96777;-48
2022/10/10 02:18:21;;;;;;;3.07;1.10;;;;;;;9.24;60.34;101443.16;4905904;28;96930;-47
2022/10/10 02:20:49;;;;;;;0.70;0.70;;;;;;;9.25;60.34;101439.19;4904053;28;97914;-48
2022/10/10 02:23:18;;;;;;;1.77;1.03;;;;;;;9.25;60.33;101433.69;4905036;28;97676;-48
2022/10/10 02:25:52;;;;;;;1.00;0.80;;;;;;;9.25;60.31;101437.22;4905254;28;97286;-48
2022/10/10 02:28:40;;;;;;;1.00;0.90;;;;;;;9.23;60.70;101425.16;4902107;28;99063;-48
2022/10/10 02:31:14;;;;;;;0.70;0.70;;;;;;;9.21;60.33;101427.63;4906926;28;101940;-48
2022/10/10 02:33:57;;;;;;;0.77;0.77;;;;;;;9.19;60.45;101424.56;4905669;28;101312;-48
2022/10/10 02:36:25;;;;;;;1.97;0.90;;;;;;;9.15;60.40;101422.00;4904219;28;97074;-48
2022/10/10 02:38:52;;;;;;;1.97;0.90;;;;;;;9.14;60.49;101422.44;4897123;28;97157;-48
2022/10/10 02:41:20;;;;;;;1.60;0.70;;;;;;;9.12;60.27;101416.66;4906630;28;97598;-53
2022/10/10 02:43:48;;;;;;;1.23;0.97;;;;;;;9.07;60.38;101421.56;4903870;28;97119;-48
2022/10/10 02:46:14;;;;;;;0.80;0.80;;;;;;;9.03;60.48;101418.22;4902621;28;97276;-48
2022/10/10 02:48:39;;;;;;;1.10;0.70;;;;;;;9.00;60.56;101421.88;4906546;28;97866;-48
2022/10/10 02:51:05;;;;;;;2.30;0.70;;;;;;;8.98;60.72;101409.84;4904574;28;97059;-48
2022/10/10 02:53:31;;;;;;;6.37;1.00;;;;;;;8.97;60.45;101422.81;4907544;28;97299;-48
2022/10/10 02:55:56;;;;;;;5.03;1.30;;;;;;;8.96;60.47;101412.28;4905559;28;97402;-48
2022/10/10 02:58:21;;;;;;;0.80;0.80;;;;;;;8.93;60.58;101419.47;4900678;28;100545;-48
2022/10/10 03:00:47;;;;;;;0.90;0.70;;;;;;;8.93;60.66;101418.72;4897601;28;104971;-48
2022/10/10 03:03:12;;;;;;;3.00;1.17;;;;;;;8.89;60.61;101421.63;4906329;28;110751;-48
2022/10/10 03:05:37;;;;;;;2.07;0.70;;;;;;;8.87;60.33;101415.81;4909009;28;96683;-48
2022/10/10 03:08:03;;;;;;;0.70;0.60;;;;;;;8.85;60.71;101418.28;4903178;28;102905;-48
2022/10/10 03:10:28;;;;;;;2.00;1.40;;;;;;;8.83;60.63;101415.22;4906734;28;97660;-48
2022/10/10 03:12:53;;;;;;;1.53;0.73;;;;;;;8.82;60.79;101407.47;4906364;28;97443;-48
2022/10/10 03:15:19;;;;;;;2.03;0.97;;;;;;;8.80;60.62;101407.91;4901201;28;107045;-49
2022/10/10 03:17:44;;;;;;;2.07;1.00;;;;;;;8.78;60.67;101399.38;4905335;28;97363;-48
2022/10/10 03:20:10;;;;;;;1.77;0.77;;;;;;;8.79;60.77;101403.66;4904040;28;97651;-48
2022/10/10 03:22:35;;;;;;;3.03;0.80;;;;;;;8.79;60.58;101395.44;4907070;28;96924;-47
2022/10/10 03:25:01;;;;;;;0.70;0.70;;;;;;;8.80;60.88;101394.19;4905506;28;97398;-50
2022/10/10 03:27:26;;;;;;;2.83;0.80;;;;;;;8.80;60.69;101394.19;4906794;28;97319;-48
2022/10/10 03:29:51;;;;;;;2.87;0.90;;;;;;;8.82;60.77;101391.00;4903970;28;116943;-48
2022/10/10 03:32:16;;;;;;;0.80;0.73;;;;;;;8.82;60.60;101386.25;4905487;28;114124;-48
2022/10/10 03:34:42;;;;;;;1.90;0.93;;;;;;;8.81;60.73;101382.00;4900502;28;105804;-48
2022/10/10 03:37:07;;;;;;;1.20;0.80;;;;;;;8.81;60.74;101390.25;4905273;28;97323;-48
2022/10/10 03:39:32;;;;;;;2.40;0.90;;;;;;;8.78;60.76;101385.66;4905269;28;98044;-48
2022/10/10 03:41:58;;;;;;;1.83;0.77;;;;;;;8.77;60.71;101384.16;4905163;28;109102;-48
2022/10/10 03:44:23;;;;;;;1.07;0.97;;;;;;;8.74;60.51;101390.56;4902633;28;97250;-48
2022/10/10 03:46:48;;;;;;;3.93;1.40;;;;;;;8.74;60.77;101382.31;4893076;28;97004;-48
2022/10/10 03:49:14;;;;;;;2.47;1.03;;;;;;;8.72;60.58;101387.53;4901787;28;118141;-48
2022/10/10 03:51:40;;;;;;;1.90;0.93;;;;;;;8.69;60.37;101377.47;4900799;28;97776;-47
2022/10/10 03:54:05;;;;;;;1.30;0.73;;;;;;;8.69;60.87;101371.22;4904428;28;97324;-48
2022/10/10 03:56:30;;;;;;;1.40;1.07;;;;;;;8.67;60.87;101368.94;4905928;28;97167;-48
2022/10/10 03:58:59;;;;;;;2.30;0.80;;;;;;;8.69;60.80;101357.50;4908563;28;116998;-49
2022/10/10 04:01:25;;;;;;;2.27;0.93;;;;;;;8.70;60.69;101357.03;4904428;28;102394;-48
2022/10/10 04:03:50;;;;;;;1.80;1.07;;;;;;;8.71;60.64;101353.09;4908333;28;97697;-48
2022/10/10 04:06:15;;;;;;;12.80;1.47;;;;;;;8.72;60.71;101354.59;4908063;28;100028;-48
2022/10/10 04:08:41;;;;;;;0.87;0.83;;;;;;;8.72;60.80;101349.09;4904304;28;97736;-48
2022/10/10 04:11:06;;;;;;;0.90;0.90;;;;;;;8.74;61.00;101352.16;4901745;28;107601;-47
2022/10/10 04:13:31;;;;;;;2.67;1.00;;;;;;;8.73;60.90;101341.66;4907411;28;111038;-48
2022/10/10 04:15:57;;;;;;;1.90;0.93;;;;;;;8.74;60.96;101343.16;4905669;28;97565;-48
2022/10/10 04:18:23;;;;;;;1.23;0.70;;;;;;;8.73;60.88;101341.66;4907211;28;97477;-48
2022/10/10 04:20:49;;;;;;;0.80;0.80;;;;;;;8.75;60.85;101345.47;4904275;28;98356;-48
2022/10/10 04:23:14;;;;;;;0.80;0.67;;;;;;;8.75;60.90;101342.72;4907997;28;97095;-48
2022/10/10 04:25:40;;;;;;;0.93;0.80;;;;;;;8.74;60.92;101343.91;4904326;28;97090;-48
2022/10/10 04:28:06;;;;;;;2.37;1.20;;;;;;;8.74;60.66;101338.44;4907860;28;97395;-48
2022/10/10 04:30:33;;;;;;;0.70;0.70;;;;;;;8.74;60.79;101337.66;4899673;28;98692;-48
2022/10/10 04:32:59;;;;;;;1.27;0.70;;;;;;;8.74;60.93;101332.19;4905612;28;96829;-48
2022/10/10 04:35:24;;;;;;;1.20;0.80;;;;;;;8.76;60.70;101332.47;4907296;28;97221;-48
2022/10/10 04:37:50;;;;;;;2.63;1.10;;;;;;;8.74;60.80;101335.69;4904866;28;97284;-47
2022/10/10 04:40:15;;;;;;;1.60;1.27;;;;;;;8.72;60.85;101329.91;4908402;28;97695;-48
2022/10/10 04:42:40;;;;;;;1.30;1.17;;;;;;;8.71;61.11;101325.66;4905707;28;105378;-48
2022/10/10 04:45:06;;;;;;;5.60;1.20;;;;;;;8.71;60.79;101322.91;4909728;28;103805;-48
2022/10/10 04:47:32;;;;;;;1.67;1.00;;;;;;;8.70;60.91;101321.38;4906483;28;98224;-47
2022/10/10 04:49:57;;;;;;;3.17;1.00;;;;;;;8.69;60.95;101317.09;4905036;28;117358;-48
2022/10/10 04:52:22;;;;;;;4.77;1.10;;;;;;;8.65;60.81;101311.03;4908101;28;97409;-48
2022/10/10 04:54:48;;;;;;;1.40;1.17;;;;;;;8.64;60.97;101314.25;4907043;28;103988;-48
2022/10/10 04:57:13;;;;;;;2.20;1.43;;;;;;;8.62;61.03;101303.75;4902342;28;109271;-48
2022/10/10 04:59:38;;;;;;;2.10;1.30;;;;;;;8.62;61.01;101302.97;4906211;28;115314;-48
2022/10/10 05:02:04;;;;;;;4.63;1.10;;;;;;;8.59;60.97;101301.91;4907321;28;98662;-48
2022/10/10 05:04:29;;;;;;;3.67;1.43;;;;;;;8.57;61.14;101307.09;4906314;28;97277;-48
2022/10/10 05:06:54;;;;;;;4.60;1.33;;;;;;;8.58;61.15;101297.66;4908404;28;97280;-47
2022/10/10 05:09:20;;;;;;;2.00;0.90;;;;;;;8.54;60.80;101305.28;4905454;28;110670;-48
2022/10/10 05:11:45;;;;;;;2.10;1.40;;;;;;;8.53;61.18;101297.53;4907241;28;97653;-48
2022/10/10 05:14:10;;;;;;;4.30;1.07;;;;;;;8.50;61.08;101296.47;4906038;28;97147;-48
2022/10/10 05:16:36;;;;;;;6.90;1.20;;;;;;;8.51;61.07;101297.22;4903861;28;98934;-48
2022/10/10 05:19:01;;;;;;;4.20;0.80;;;;;;;8.48;61.20;101289.91;4906141;28;98393;-48
2022/10/10 05:21:27;;;;;;;2.70;1.10;;;;;;;8.46;61.05;101293.13;4906630;28;97299;-48
2022/10/10 05:23:53;;;;;;;1.63;0.97;;;;;;;8.47;61.10;101285.66;4907772;28;97066;-48
2022/10/10 05:26:19;;;;;;;5.07;1.40;;;;;;;8.46;61.00;101293.13;4905172;28;97860;-48
2022/10/10 05:28:44;;;;;;;2.17;1.00;;;;;;;8.47;61.26;101286.44;4905202;28;97553;-48
2022/10/10 05:31:10;;;;;;;1.47;0.87;;;;;;;8.48;61.10;101290.69;4904814;28;96997;-48
2022/10/10 05:33:35;;;;;;;2.40;0.93;;;;;;;8.47;61.22;101283.69;4903600;28;97093;-48
2022/10/10 05:36:12;;;;;;;2.60;1.10;;;;;;;8.47;61.38;101272.72;4905582;28;97001;-47
2022/10/10 05:38:39;;;;;;;1.23;1.00;;;;;;;8.45;60.96;101282.63;4905367;28;97792;-48
2022/10/10 05:41:04;;;;;;;2.30;1.10;;;;;;;8.44;61.07;101273.63;4908692;28;97095;-48
2022/10/10 05:43:30;;;;;;;2.97;1.40;;;;;;;8.44;60.90;101268.16;4902469;28;98315;-48
2022/10/10 05:45:56;;;;;;;1.40;0.97;;;;;;;8.41;61.06;101276.56;4903945;28;97199;-48
2022/10/10 05:48:21;;;;;;;1.10;1.00;;;;;;;8.43;61.19;101266.63;4904258;28;97497;-48
2022/10/10 05:50:54;;;;;;;1.87;1.40;;;;;;;8.45;61.17;101277.91;4906885;28;96781;-48
2022/10/10 05:53:20;;;;;;;8.53;1.30;;;;;;;8.44;61.07;101273.63;4901234;28;97429;-48
2022/10/10 05:55:46;;;;;;;1.10;1.00;;;;;;;8.42;61.12;101272.56;4907005;28;97420;-48
2022/10/10 05:58:14;;;;;;;1.03;0.83;;;;;;;8.38;61.17;101278.22;4904239;28;109568;-48
2022/10/10 06:00:41;;;;;;;1.50;1.00;;;;;;;8.36;61.22;101271.69;4906436;28;97338;-48
2022/10/10 06:03:11;;;;;;;1.13;0.70;;;;;;;8.32;61.14;101267.13;4907556;28;97173;-48
2022/10/10 06:05:37;;;;;;;2.23;1.00;;;;;;;8.32;61.21;101271.84;4904659;28;97244;-48
2022/10/10 06:08:02;;;;;;;2.20;0.90;;;;;;;8.32;61.25;101269.84;4905540;28;96893;-48
2022/10/10 06:10:28;;;;;;;5.63;1.13;;;;;;;8.31;61.20;101270.31;4903908;28;100224;-48
2022/10/10 06:12:53;;;;;;;1.60;0.90;;;;;;;8.30;61.42;101268.78;4907789;28;97258;-48
2022/10/10 06:15:18;;;;;;;6.13;1.20;;;;;;;8.30;61.08;101266.03;4907155;28;98422;-48
2022/10/10 06:17:43;;;;;;;1.03;1.03;;;;;;;8.32;61.28;101265.59;4902639;28;110879;-48
2022/10/10 06:20:09;;;;;;;1.30;1.20;;;;;;;8.30;61.27;101268.78;4903513;28;96774;-48
2022/10/10 06:22:34;;;;;;;1.10;1.00;;;;;;;8.34;61.22;101258.44;4907159;28;103956;-48
2022/10/10 06:24:59;;;;;;;1.90;0.90;;;;;;;8.35;61.19;101253.69;4904769;28;112236;-48
2022/10/10 06:27:25;;;;;;;2.00;1.17;;;;;;;8.37;61.20;101263.00;4904618;28;105966;-48
2022/10/10 06:29:50;;;;;;;1.43;0.87;;;;;;;8.36;61.07;101261.47;4904563;28;108872;-48
2022/10/10 06:32:15;;;;;;;0.90;0.90;;;;;;;8.37;61.08;101263.00;4901188;28;97281;-48
2022/10/10 06:34:40;;;;;;;0.90;0.90;;;;;;;8.39;61.42;101268.03;4905717;28;97607;-48
2022/10/10 06:37:07;;;;;;;0.70;0.70;;;;;;;8.41;61.51;101262.84;4902924;28;117695;-48
2022/10/10 06:39:32;;;;;;;1.77;0.90;;;;;;;8.44;61.33;101272.88;4908004;28;97251;-48
2022/10/10 06:41:58;;;;;;;2.37;1.10;;;;;;;8.47;61.44;101266.47;4902841;28;96695;-48
2022/10/10 06:44:23;;;;;;;1.60;1.17;;;;;;;8.48;61.31;101274.22;4904649;28;112471;-48
2022/10/10 06:46:48;;;;;;;0.90;0.80;;;;;;;8.51;61.43;101276.06;4905466;28;104218;-47
2022/10/10 06:49:14;;;;;;;0.90;0.90;;;;;;;8.53;61.34;101270.88;4904559;28;104709;-48
2022/10/10 06:51:39;;;;;;;5.40;1.50;;;;;;;8.56;61.35;101264.44;4907124;28;97297;-47
2022/10/10 06:54:04;;;;;;;1.00;0.90;;;;;;;8.60;61.35;101281.50;4904356;28;97213;-48
2022/10/10 06:56:29;;;;;;;1.03;0.93;;;;;;;8.63;61.50;101266.09;4904789;28;97084;-47
2022/10/10 06:58:55;;;;;;;3.33;1.00;;;;;;;8.67;61.28;101267.44;4904013;28;97628;-48
2022/10/10 07:01:22;;;;;;;2.40;0.80;;;;;;;8.71;61.15;101281.78;4904159;28;98208;-48
2022/10/10 07:03:48;;;;;;;4.93;1.63;;;;;;;8.77;61.45;101279.16;4901729;28;97356;-47
2022/10/10 07:06:14;;;;;;;0.90;0.90;;;;;;;8.80;61.38;101270.72;4903929;28;96770;-48
2022/10/10 07:08:40;;;;;;;4.37;0.93;;;;;;;8.82;61.32;101265.53;4905899;28;96913;-47
2022/10/10 07:11:06;;;;;;;5.10;1.80;;;;;;;8.86;61.53;101266.16;4907040;28;97301;-49
2022/10/10 07:13:33;;;;;;;2.83;1.00;;;;;;;8.88;61.42;101271.94;4904689;28;98354;-49
2022/10/10 07:15:59;;;;;;;3.17;0.90;;;;;;;8.92;61.50;101263.53;4902694;28;98655;-49
2022/10/10 07:18:25;;;;;;;0.93;0.90;;;;;;;8.98;61.61;101278.88;4903260;28;96731;-47
2022/10/10 07:20:53;;;;;;;1.37;0.97;;;;;;;9.03;61.49;101270.03;4906054;28;97595;-50
2022/10/10 07:23:19;;;;;;;5.40;1.37;;;;;;;9.07;61.58;101256.88;4905025;28;103258;-47
2022/10/10 07:25:44;;;;;;;3.27;0.90;;;;;;;9.16;61.61;101266.28;4902364;28;98211;-50
2022/10/10 07:28:10;;;;;;;1.73;1.10;;;;;;;9.21;61.77;101257.41;4903995;28;97083;-47
2022/10/10 07:30:40;;;;;;;1.30;0.90;;;;;;;9.28;61.68;101263.31;4908516;28;97331;-50
2022/10/10 07:33:05;;;;;;;0.80;0.80;;;;;;;9.34;61.66;101258.69;4905486;28;97286;-49
2022/10/10 07:35:31;;;;;;;1.63;1.10;;;;;;;9.42;61.86;101267.31;4910799;28;97367;-50
2022/10/10 07:37:56;;;;;;;1.33;1.23;;;;;;;9.50;61.75;101263.00;4906710;28;97254;-48
2022/10/10 07:40:22;;;;;;;3.57;1.27;;;;;;;9.59;61.95;101260.16;4908804;28;97070;-47
2022/10/10 07:42:47;;;;;;;3.47;1.50;;;;;;;9.69;61.83;101258.88;4904997;28;97270;-48
2022/10/10 07:45:13;;;;;;;12.40;1.70;;;;;;;9.78;62.05;101256.03;4909183;28;97611;-47
2022/10/10 07:47:39;;;;;;;3.33;1.20;;;;;;;9.86;61.93;101251.69;4908241;28;97252;-47
2022/10/10 07:50:06;;;;;;;6.00;1.67;;;;;;;9.96;61.94;101250.34;4907410;28;97335;-47
2022/10/10 07:52:32;;;;;;;1.00;1.00;;;;;;;10.03;62.00;101249.22;4906043;28;97477;-48
2022/10/10 07:54:57;;;;;;;1.97;1.40;;;;;;;10.14;61.89;101241.97;4908033;28;97648;-48
2022/10/10 07:57:22;;;;;;;1.93;1.47;;;;;;;10.27;62.04;101245.19;4910224;28;105315;-50
2022/10/10 07:59:48;;;;;;;1.37;1.13;;;;;;;10.38;62.14;101245.34;4906294;28;97263;-49
2022/10/10 08:02:13;;;;;;;3.83;1.37;;;;;;;10.46;61.93;101243.72;4910656;28;97001;-47
2022/10/10 08:04:39;;;;;;;2.23;0.87;;;;;;;10.57;62.20;101245.91;4907371;28;97495;-49
2022/10/10 08:07:05;;;;;;;1.67;1.30;;;;;;;10.68;62.13;101243.31;4909283;28;97176;-49
2022/10/10 08:09:30;;;;;;;1.57;0.97;;;;;;;10.79;62.11;101234.47;4904640;28;96976;-48
2022/10/10 08:11:55;;;;;;;4.40;1.30;;;;;;;10.88;62.13;101237.06;4907024;28;111014;-48
2022/10/10 08:14:21;;;;;;;4.20;1.60;;;;;;;10.98;62.22;101241.22;4907013;28;97764;-47
2022/10/10 08:16:46;;;;;;;1.40;1.30;;;;;;;11.09;62.21;101246.88;4906552;28;97080;-48
2022/10/10 08:19:11;;;;;;;1.67;1.57;;;;;;;11.22;62.21;101244.56;4908615;28;100495;-51
2022/10/10 08:21:37;;;;;;;2.70;1.67;;;;;;;11.36;62.14;101245.72;4904802;28;110186;-48
2022/10/10 08:24:02;;;;;;;2.17;1.30;;;;;;;11.48;62.13;101237.09;4906060;28;104271;-48
2022/10/10 08:26:28;;;;;;;2.17;1.80;;;;;;;11.62;61.95;101263.78;4907530;28;97322;-48
2022/10/10 08:28:53;;;;;;;2.20;1.30;;;;;;;11.73;62.04;101241.91;4907376;28;96954;-48
2022/10/10 08:31:20;;;;;;;4.00;1.30;;;;;;;11.83;62.18;101239.75;4907585;28;97078;-48
2022/10/10 08:33:46;;;;;;;1.40;1.30;;;;;;;11.95;61.92;101239.38;4906606;28;96999;-47
2022/10/10 08:36:23;;;;;;;1.80;1.43;;;;;;;12.07;62.04;101236.72;4902626;28;98929;-48
2022/10/10 08:38:48;;;;;;;1.20;1.10;;;;;;;12.15;62.01;101240.53;4908009;28;96850;-47
2022/10/10 08:41:43;;;;;;;4.20;1.20;;;;;;;12.30;62.88;101235.66;4903540;28;97033;-48
2022/10/10 08:44:18;;;;;;;1.40;1.30;;;;;;;12.42;62.14;101235.25;4899849;28;101804;-48
2022/10/10 08:47:03;;;;;;;3.70;1.17;;;;;;;12.56;62.13;101230.81;4904890;28;97687;-48
2022/10/10 08:49:31;;;;;;;1.70;1.60;;;;;;;12.66;61.85;101235.69;4908283;28;97243;-48
2022/10/10 08:52:04;;;;;;;0.90;0.90;;;;;;;12.83;61.84;101241.28;4906916;28;97857;-48
2022/10/10 08:54:33;;;;;;;4.10;1.20;;;;;;;13.00;61.64;101227.56;4906148;28;97414;-48
2022/10/10 08:57:03;;;;;;;1.53;1.10;;;;;;;13.11;61.42;101222.88;4905919;28;97278;-48
2022/10/10 08:59:34;;;;;;;3.67;1.17;;;;;;;13.24;61.58;101222.44;4906841;28;97060;-48
2022/10/10 09:02:23;;;;;;;1.20;1.10;;;;;;;13.34;61.52;101215.44;4905344;28;97583;-48
2022/10/10 09:04:48;;;;;;;3.20;1.37;;;;;;;13.49;61.20;101213.22;4908640;28;101694;-47
2022/10/10 09:07:27;;;;;;;2.50;1.27;;;;;;;13.63;61.68;101203.22;4911437;28;96886;-47
2022/10/10 09:10:22;;;;;;;1.43;1.20;;;;;;;13.74;61.66;101197.69;4897203;28;96795;-47
2022/10/10 09:12:55;;;;;;;1.20;0.97;;;;;;;13.89;61.23;101201.72;4907043;28;103566;-47
2022/10/10 09:15:30;;;;;;;2.07;1.70;;;;;;;14.02;60.96;101201.97;4908552;28;97136;-48
2022/10/10 09:18:01;;;;;;;3.13;1.20;;;;;;;14.16;60.89;101206.53;4905926;28;97224;-48
2022/10/10 09:20:35;;;;;;;4.07;1.60;;;;;;;14.32;60.90;101204.28;4908229;28;96714;-48
2022/10/10 09:23:05;;;;;;;2.20;1.17;;;;;;;14.44;60.64;101212.06;4904797;28;101871;-48
2022/10/10 09:25:39;;;;;;;0.93;0.93;;;;;;;14.60;60.33;101202.22;4907573;28;99855;-48
2022/10/10 09:28:11;;;;;;;1.10;1.00;;;;;;;14.74;60.37;101201.19;4906475;28;97304;-48
2022/10/10 09:30:44;;;;;;;2.23;1.20;;;;;;;14.85;60.38;101199.13;4906054;28;97220;-48
2022/10/10 09:33:23;;;;;;;4.13;1.00;;;;;;;14.96;60.42;101188.00;4905527;28;102128;-48
2022/10/10 09:35:52;;;;;;;3.47;1.40;;;;;;;15.05;60.23;101191.78;4906996;28;100946;-49
2022/10/10 09:38:29;;;;;;;2.83;1.00;;;;;;;15.19;59.73;101197.00;4908138;28;97219;-48
2022/10/10 09:41:03;;;;;;;1.10;1.00;;;;;;;15.34;59.76;101193.88;4902843;28;97048;-48
2022/10/10 09:43:32;;;;;;;3.20;1.33;;;;;;;15.48;59.53;101192.84;4906560;28;97480;-48
2022/10/10 09:45:58;;;;;;;2.73;1.53;;;;;;;15.61;59.36;101191.00;4906430;28;96951;-52
2022/10/10 09:48:36;;;;;;;1.97;1.20;;;;;;;15.72;58.77;101193.72;4908970;28;97301;-48
2022/10/10 09:51:04;;;;;;;1.47;1.37;;;;;;;15.86;59.07;101199.41;4906798;28;96892;-53
2022/10/10 09:53:29;;;;;;;1.67;1.57;;;;;;;15.98;59.00;101198.81;4905874;28;97339;-48
2022/10/10 09:55:55;;;;;;;1.17;1.10;;;;;;;16.08;58.75;101191.66;4905556;28;97215;-48
2022/10/10 09:58:38;;;;;;;1.93;1.30;;;;;;;16.21;58.33;101186.25;4907834;28;96867;-48
2022/10/10 10:01:21;;;;;;;1.63;0.97;;;;;;;16.30;58.09;101197.03;4906899;28;98496;-47
2022/10/10 10:04:08;;;;;;;0.90;0.90;;;;;;;16.38;57.33;101192.38;4903067;28;101839;-47
2022/10/10 10:06:34;;;;;;;2.10;1.37;;;;;;;16.47;58.28;101189.28;4900663;28;96801;-48
2022/10/10 10:09:01;;;;;;;2.20;2.00;;;;;;;16.56;58.11;101204.13;4906817;28;97325;-47
2022/10/10 10:11:33;;;;;;;3.57;2.40;;;;;;;16.65;57.81;101204.53;4905514;28;96900;-48
2022/10/10 10:14:01;;;;;;;2.67;1.70;;;;;;;16.75;58.17;101199.38;4904251;28;101044;-47
2022/10/10 10:16:33;;;;;;;3.33;1.57;;;;;;;16.83;57.85;101205.84;4902639;28;97452;-48
2022/10/10 10:18:58;;;;;;;1.60;1.50;;;;;;;16.88;58.05;101205.81;4903475;28;97089;-48
2022/10/10 10:21:24;;;;;;;3.63;1.90;;;;;;;16.97;57.85;101196.34;4906188;28;97344;-47
2022/10/10 10:23:57;;;;;;;1.30;1.20;;;;;;;17.09;56.84;101203.28;4906952;28;97252;-48
2022/10/10 10:26:42;;;;;;;2.80;1.13;;;;;;;17.16;57.00;101191.56;4905657;28;97148;-47
2022/10/10 10:29:32;;;;;;;1.83;0.90;;;;;;;17.27;56.24;101199.00;4908288;28;97161;-48
2022/10/10 10:32:16;;;;;;;2.93;0.90;;;;;;;17.38;56.53;101198.88;4906033;28;97198;-47
2022/10/10 10:35:03;;;;;;;1.80;1.10;;;;;;;17.47;56.00;101198.50;4906006;28;100598;-48
2022/10/10 10:37:37;;;;;;;0.87;0.77;;;;;;;17.57;56.26;101192.03;4908199;28;97140;-47
2022/10/10 10:40:24;;;;;;;4.43;1.00;;;;;;;17.69;56.28;101187.81;4906830;28;97439;-47
2022/10/10 10:42:58;;;;;;;2.20;1.50;;;;;;;17.77;56.47;101194.28;4900970;28;96843;-48
2022/10/10 10:45:49;;;;;;;1.70;1.20;;;;;;;17.86;55.20;101190.34;4905862;28;97435;-47
2022/10/10 10:48:38;;;;;;;1.43;0.90;;;;;;;17.96;55.17;101194.22;4906353;28;97397;-48
2022/10/10 10:51:19;;;;;;;2.40;0.83;;;;;;;18.09;54.83;101201.84;4903954;28;97072;-47
2022/10/10 10:53:50;;;;;;;1.63;1.20;;;;;;;18.18;55.83;101193.88;4904623;28;97818;-47
2022/10/10 10:56:25;;;;;;;1.67;1.30;;;;;;;18.31;55.09;101198.69;4905055;28;97352;-47
2022/10/10 10:59:11;;;;;;;2.50;1.03;;;;;;;18.42;54.08;101190.16;4905158;28;97417;-48
2022/10/10 11:01:48;;;;;;;1.53;1.20;;;;;;;18.52;54.89;101194.78;4904619;28;97807;-47
2022/10/10 11:04:41;;;;;;;4.00;1.10;;;;;;;18.60;53.87;101186.56;4907155;28;96755;-48
2022/10/10 11:07:21;;;;;;;1.60;1.20;;;;;;;18.70;54.71;101184.84;4909126;28;100403;-48
2022/10/10 11:10:17;;;;;;;1.00;0.97;;;;;;;18.87;53.73;101185.25;4908341;28;101381;-48
2022/10/10 11:12:58;;;;;;;1.67;1.47;;;;;;;18.98;54.45;101187.81;4909151;28;97592;-50
2022/10/10 11:15:31;;;;;;;1.33;1.23;;;;;;;19.08;54.54;101188.16;4910450;28;96773;-48
2022/10/10 11:18:18;;;;;;;4.43;1.20;;;;;;;19.16;53.08;101184.16;4908209;28;97260;-47
2022/10/10 11:20:54;;;;;;;1.50;1.40;;;;;;;19.25;53.58;101177.38;4907475;28;101629;-48
2022/10/10 11:23:43;;;;;;;4.40;1.17;;;;;;;19.34;53.35;101177.72;4905137;28;96919;-47
2022/10/10 11:26:23;;;;;;;4.77;1.47;;;;;;;19.52;53.05;101180.88;4910026;28;96873;-48
2022/10/10 11:29:04;;;;;;;4.20;1.63;;;;;;;19.70;52.52;101182.75;4906022;28;98570;-48
2022/10/10 11:31:38;;;;;;;1.87;0.97;;;;;;;19.88;52.48;101185.34;4907942;28;101572;-50
2022/10/10 11:34:23;;;;;;;2.37;1.30;;;;;;;20.02;52.28;101186.03;4908402;28;96770;-48
2022/10/10 11:36:53;;;;;;;1.70;1.17;;;;;;;20.21;53.16;101178.19;4908651;28;97617;-48
2022/10/10 11:39:35;;;;;;;13.10;1.30;;;;;;;20.43;52.88;101177.63;4905291;28;97368;-48
2022/10/10 11:42:21;;;;;;;2.30;1.30;;;;;;;20.62;51.18;101175.31;4910458;28;96937;-48